createdAt,value
2023-11-18T00:00:12.468Z,-2.79
2023-11-18T00:02:40.759Z,-2.81
2023-11-18T00:05:08.885Z,-2.81
2023-11-18T00:07:36.703Z,-2.81
2023-11-18T00:10:05.768Z,-2.78
2023-11-18T00:12:36.972Z,-2.79
2023-11-18T00:15:05.596Z,-2.83
2023-11-18T00:17:34.726Z,-2.75
2023-11-18T00:20:02.418Z,-2.81
2023-11-18T00:22:30.873Z,-2.87
2023-11-18T00:24:57.999Z,-2.89
2023-11-18T00:27:26.329Z,-2.87
2023-11-18T00:29:54.416Z,-2.85
2023-11-18T00:32:21.983Z,-2.89
2023-11-18T00:34:49.283Z,-2.89
2023-11-18T00:37:16.666Z,-2.88
2023-11-18T00:39:43.841Z,-2.86
2023-11-18T00:42:11.153Z,-2.93
2023-11-18T00:44:39.070Z,-2.91
2023-11-18T00:47:06.797Z,-2.93
2023-11-18T00:49:35.345Z,-2.93
2023-11-18T00:52:02.914Z,-2.96
2023-11-18T00:54:30.326Z,-2.98
2023-11-18T00:56:57.723Z,-3.01
2023-11-18T00:59:24.993Z,-2.98
2023-11-18T01:01:52.088Z,-2.97
2023-11-18T01:04:21.215Z,-2.94
2023-11-18T01:06:49.535Z,-2.99
2023-11-18T01:09:17.520Z,-2.97
2023-11-18T01:12:07.072Z,-2.96
2023-11-18T01:14:31.911Z,-2.93
2023-11-18T01:16:59.262Z,-2.96
2023-11-18T01:19:26.419Z,-2.96
2023-11-18T01:21:54.432Z,-2.96
2023-11-18T01:24:21.619Z,-2.98
2023-11-18T01:26:49.102Z,-3.02
2023-11-18T01:29:16.402Z,-3.05
2023-11-18T01:31:51.777Z,-3.06
2023-11-18T01:34:23.931Z,-3.09
2023-11-18T01:36:51.648Z,-3.05
2023-11-18T01:39:19.489Z,-3.07
2023-11-18T01:41:47.358Z,-3.06
2023-11-18T01:44:15.057Z,-3.04
2023-11-18T01:46:46.813Z,-3.12
2023-11-18T01:49:15.822Z,-3.14
2023-11-18T01:51:46.641Z,-3.16
2023-11-18T01:54:20.381Z,-3.12
2023-11-18T01:56:50.467Z,-3.09
2023-11-18T01:59:21.012Z,-3.10
2023-11-18T02:01:54.735Z,-3.15
2023-11-18T02:04:23.029Z,-3.12
2023-11-18T02:06:51.323Z,-3.16
2023-11-18T02:09:20.439Z,-3.16
2023-11-18T02:12:01.269Z,-3.26
2023-11-18T02:14:30.123Z,-3.29
2023-11-18T02:17:01.268Z,-3.30
2023-11-18T02:19:31.363Z,-3.31
2023-11-18T02:21:59.589Z,-3.31
2023-11-18T02:24:32.362Z,-3.30
2023-11-18T02:27:00.667Z,-3.29
2023-11-18T02:29:33.938Z,-3.28
2023-11-18T02:32:11.721Z,-3.31
2023-11-18T02:34:44.923Z,-3.33
2023-11-18T02:37:13.809Z,-3.32
2023-11-18T02:39:45.602Z,-3.32
2023-11-18T02:42:14.702Z,-3.32
2023-11-18T02:44:45.018Z,-3.33
2023-11-18T02:47:12.374Z,-3.38
2023-11-18T02:49:40.235Z,-3.42
2023-11-18T02:52:07.625Z,-3.43
2023-11-18T02:54:34.755Z,-3.38
2023-11-18T02:57:02.397Z,-3.40
2023-11-18T02:59:32.256Z,-3.44
2023-11-18T03:01:59.501Z,-3.44
2023-11-18T03:04:27.094Z,-3.43
2023-11-18T03:06:54.233Z,-3.40
2023-11-18T03:09:21.400Z,-3.42
2023-11-18T03:11:48.748Z,-3.43
2023-11-18T03:14:15.906Z,-3.47
2023-11-18T03:16:43.279Z,-3.47
2023-11-18T03:19:10.582Z,-3.52
2023-11-18T03:21:38.192Z,-3.49
2023-11-18T03:24:05.966Z,-3.54
2023-11-18T03:26:33.762Z,-3.61
2023-11-18T03:31:46.084Z,-3.59
2023-11-18T03:34:13.333Z,-3.61
2023-11-18T03:36:40.499Z,-3.62
2023-11-18T03:39:07.682Z,-3.61
2023-11-18T03:41:34.729Z,-3.62
2023-11-18T03:44:01.899Z,-3.65
2023-11-18T03:46:35.869Z,-3.67
2023-11-18T03:49:03.229Z,-3.67
2023-11-18T03:51:30.779Z,-3.68
2023-11-18T03:53:57.896Z,-3.73
2023-11-18T03:56:25.500Z,-3.76
2023-11-18T03:58:52.697Z,-3.76
2023-11-18T04:01:29.906Z,-3.75
2023-11-18T04:03:57.374Z,-3.80
2023-11-18T04:06:25.702Z,-3.79
2023-11-18T04:08:52.967Z,-3.79
2023-11-18T04:11:20.187Z,-3.85
2023-11-18T04:13:47.551Z,-3.79
2023-11-18T04:16:18.063Z,-3.78
2023-11-18T04:18:47.078Z,-3.78
2023-11-18T04:21:14.657Z,-3.84
2023-11-18T04:23:45.401Z,-3.81
2023-11-18T04:26:13.277Z,-3.79
2023-11-18T04:28:40.567Z,-3.80
2023-11-18T04:31:07.860Z,-3.76
2023-11-18T04:33:35.075Z,-3.77
2023-11-18T04:36:02.734Z,-3.74
2023-11-18T04:38:30.071Z,-3.79
2023-11-18T04:40:57.290Z,-3.79
2023-11-18T04:43:30.819Z,-3.81
2023-11-18T04:46:07.824Z,-3.85
2023-11-18T04:48:39.714Z,-3.85
2023-11-18T04:51:08.821Z,-3.88
2023-11-18T04:53:36.027Z,-3.85
2023-11-18T04:56:04.229Z,-3.79
2023-11-18T04:58:31.458Z,-3.79
2023-11-18T05:00:58.795Z,-3.80
2023-11-18T05:03:25.994Z,-3.82
2023-11-18T05:05:56.041Z,-3.79
2023-11-18T05:08:25.466Z,-3.76
2023-11-18T05:10:53.104Z,-3.73
2023-11-18T05:13:20.433Z,-3.71
2023-11-18T05:15:48.543Z,-3.74
2023-11-18T05:18:16.893Z,-3.66
2023-11-18T05:20:45.510Z,-3.61
2023-11-18T05:23:13.803Z,-3.60
2023-11-18T05:25:41.577Z,-3.59
2023-11-18T05:28:09.877Z,-3.56
2023-11-18T05:30:37.523Z,-3.50
2023-11-18T05:33:08.633Z,-3.43
2023-11-18T05:35:36.385Z,-3.35
2023-11-18T05:38:04.536Z,-3.35
2023-11-18T05:40:31.649Z,-3.30
2023-11-18T05:43:00.074Z,-3.26
2023-11-18T05:45:33.120Z,-3.23
2023-11-18T05:48:00.504Z,-3.29
2023-11-18T05:50:28.542Z,-3.25
2023-11-18T05:52:56.559Z,-3.26
2023-11-18T05:55:23.776Z,-3.24
2023-11-18T05:57:50.943Z,-3.12
2023-11-18T06:00:25.519Z,-2.79
2023-11-18T06:02:57.960Z,-1.77
2023-11-18T06:05:27.679Z,-0.66
2023-11-18T06:07:54.923Z,0.31
2023-11-18T06:10:22.045Z,1.24
2023-11-18T06:12:49.271Z,1.80
2023-11-18T06:15:18.413Z,2.54
2023-11-18T06:17:47.062Z,3.38
2023-11-18T06:20:15.636Z,3.93
2023-11-18T06:22:42.886Z,4.70
2023-11-18T06:25:10.340Z,5.36
2023-11-18T06:27:37.438Z,6.02
2023-11-18T06:30:05.174Z,6.61
2023-11-18T06:32:33.062Z,7.10
2023-11-18T06:35:00.206Z,7.51
2023-11-18T06:37:33.759Z,8.04
2023-11-18T06:40:01.202Z,8.51
2023-11-18T06:42:29.016Z,9.17
2023-11-18T06:44:56.158Z,9.71
2023-11-18T06:47:24.271Z,9.85
2023-11-18T06:49:53.592Z,9.88
2023-11-18T06:52:22.590Z,10.04
2023-11-18T06:54:53.168Z,10.39
2023-11-18T06:57:20.513Z,10.73
2023-11-18T06:59:47.684Z,11.10
2023-11-18T07:02:14.850Z,11.67
2023-11-18T07:04:42.057Z,11.87
2023-11-18T07:07:10.254Z,11.91
2023-11-18T07:09:37.523Z,12.16
2023-11-18T07:12:05.181Z,12.48
2023-11-18T07:14:32.306Z,12.81
2023-11-18T07:16:59.496Z,13.18
2023-11-18T07:19:26.629Z,13.79
2023-11-18T07:21:53.805Z,13.80
2023-11-18T07:24:22.022Z,14.00
2023-11-18T07:26:52.397Z,14.17
2023-11-18T07:29:20.275Z,14.63
2023-11-18T07:31:48.107Z,14.47
2023-11-18T07:34:16.386Z,14.02
2023-11-18T07:36:47.293Z,13.99
2023-11-18T07:39:17.533Z,14.50
2023-11-18T07:41:45.743Z,14.91
2023-11-18T07:44:14.540Z,15.03
2023-11-18T07:46:44.376Z,14.62
2023-11-18T07:49:12.613Z,14.57
2023-11-18T07:51:41.880Z,14.58
2023-11-18T07:54:11.475Z,14.40
2023-11-18T07:56:39.333Z,14.17
2023-11-18T07:59:09.635Z,14.30
2023-11-18T08:01:37.422Z,14.44
2023-11-18T08:04:08.108Z,14.36
2023-11-18T08:06:35.492Z,14.01
2023-11-18T08:09:04.018Z,13.97
2023-11-18T08:11:31.305Z,14.25
2023-11-18T08:14:00.231Z,14.99
2023-11-18T08:16:29.047Z,15.37
2023-11-18T08:18:57.008Z,15.56
2023-11-18T08:21:24.420Z,15.83
2023-11-18T08:23:53.871Z,15.33
2023-11-18T08:26:21.613Z,13.58
2023-11-18T08:28:49.496Z,13.97
2023-11-18T08:31:17.233Z,14.20
2023-11-18T08:33:47.876Z,14.86
2023-11-18T08:36:15.206Z,15.12
2023-11-18T08:38:45.598Z,14.26
2023-11-18T08:41:14.495Z,13.03
2023-11-18T08:43:44.968Z,11.70
2023-11-18T08:46:13.243Z,9.80
2023-11-18T08:48:40.383Z,8.48
2023-11-18T08:51:10.632Z,7.56
2023-11-18T08:53:42.528Z,6.74
2023-11-18T08:56:15.324Z,6.07
2023-11-18T08:58:50.769Z,5.30
2023-11-18T09:01:18.090Z,4.74
2023-11-18T09:03:50.005Z,4.02
2023-11-18T09:06:27.161Z,3.99
2023-11-18T09:08:55.372Z,3.87
2023-11-18T09:11:24.809Z,3.68
2023-11-18T09:13:58.624Z,3.27
2023-11-18T09:16:31.251Z,2.62
2023-11-18T09:19:03.854Z,2.54
2023-11-18T09:21:33.888Z,2.58
2023-11-18T09:24:01.103Z,2.35
2023-11-18T09:26:31.720Z,2.23
2023-11-18T09:28:59.696Z,2.21
2023-11-18T09:31:27.940Z,1.70
2023-11-18T09:33:55.261Z,1.27
2023-11-18T09:36:24.074Z,1.01
2023-11-18T09:38:51.690Z,0.82
2023-11-18T09:41:19.947Z,0.66
2023-11-18T09:43:49.286Z,0.56
2023-11-18T09:46:18.049Z,0.34
2023-11-18T09:48:54.215Z,0.36
2023-11-18T09:51:27.672Z,0.29
2023-11-18T09:53:55.656Z,0.27
2023-11-18T09:56:57.099Z,0.18
2023-11-18T09:59:36.154Z,0.15
2023-11-18T10:02:12.025Z,0.14
2023-11-18T10:04:40.648Z,-0.06
2023-11-18T10:07:12.640Z,-0.30
2023-11-18T10:09:40.253Z,-0.37
2023-11-18T10:12:09.318Z,0.53
2023-11-18T10:14:37.474Z,1.76
2023-11-18T10:17:08.125Z,2.78
2023-11-18T10:20:14.562Z,3.89
2023-11-18T10:22:43.037Z,4.41
2023-11-18T10:25:10.173Z,4.99
2023-11-18T10:27:40.013Z,5.34
2023-11-18T10:30:20.554Z,5.60
2023-11-18T10:33:07.551Z,5.83
2023-11-18T10:35:37.085Z,6.22
2023-11-18T10:38:05.988Z,6.43
2023-11-18T10:40:40.209Z,6.85
2023-11-18T10:43:11.490Z,7.11
2023-11-18T10:45:45.153Z,7.39
2023-11-18T10:48:18.930Z,7.58
2023-11-18T10:50:48.678Z,7.52
2023-11-18T10:53:17.637Z,7.36
2023-11-18T10:55:45.541Z,7.11
2023-11-18T10:58:15.909Z,6.83
2023-11-18T11:00:57.008Z,6.39
2023-11-18T11:03:27.028Z,6.17
2023-11-18T11:05:56.280Z,5.79
2023-11-18T11:08:32.767Z,5.45
2023-11-18T11:11:09.564Z,5.11
2023-11-18T11:13:39.174Z,4.91
2023-11-18T11:16:13.691Z,4.76
2023-11-18T11:18:48.746Z,4.51
2023-11-18T11:21:26.001Z,3.76
2023-11-18T11:24:06.471Z,3.59
2023-11-18T11:26:58.184Z,3.54
2023-11-18T11:29:48.446Z,3.20
2023-11-18T11:32:53.429Z,2.72
2023-11-18T11:35:45.804Z,2.26
2023-11-18T11:38:18.086Z,2.02
2023-11-18T11:40:48.910Z,1.78
2023-11-18T11:43:22.915Z,1.32
2023-11-18T11:45:56.851Z,1.21
2023-11-18T11:48:29.338Z,1.17
2023-11-18T11:51:03.905Z,0.99
2023-11-18T11:53:40.566Z,0.78
2023-11-18T11:56:08.637Z,0.68
2023-11-18T11:58:39.426Z,0.63
2023-11-18T12:01:48.486Z,0.58
2023-11-18T12:04:29.988Z,0.26
2023-11-18T12:07:02.933Z,0.20
2023-11-18T12:09:45.362Z,-0.03
2023-11-18T12:12:20.849Z,-0.18
2023-11-18T12:14:53.919Z,-0.25
2023-11-18T12:17:24.210Z,-0.44
2023-11-18T12:19:52.707Z,-0.42
2023-11-18T12:22:26.138Z,-0.43
2023-11-18T12:24:59.896Z,-0.38
2023-11-18T12:28:00.303Z,-0.42
2023-11-18T12:30:38.360Z,-0.58
2023-11-18T12:33:10.556Z,-0.67
2023-11-18T12:35:39.455Z,-0.70
2023-11-18T12:38:37.498Z,-0.75
2023-11-18T12:41:12.483Z,-0.80
2023-11-18T12:44:22.226Z,-0.86
2023-11-18T12:46:56.864Z,-0.88
2023-11-18T12:49:27.105Z,-0.97
2023-11-18T12:51:58.127Z,-1.00
2023-11-18T12:54:29.559Z,-1.13
2023-11-18T12:56:57.635Z,-1.20
2023-11-18T12:59:26.263Z,-1.24
2023-11-18T13:01:58.789Z,-1.23
2023-11-18T13:04:27.633Z,-1.26
2023-11-18T13:06:55.849Z,-1.23
2023-11-18T13:09:33.811Z,-1.22
2023-11-18T13:12:05.537Z,-1.25
2023-11-18T13:14:37.872Z,-1.31
2023-11-18T13:17:10.118Z,-1.43
2023-11-18T13:19:37.563Z,-1.45
2023-11-18T13:22:10.273Z,-1.52
2023-11-18T13:24:41.449Z,-1.52
2023-11-18T13:27:15.714Z,-1.64
2023-11-18T13:29:54.532Z,-1.69
2023-11-18T13:32:27.676Z,-1.73
2023-11-18T13:34:55.222Z,-1.66
2023-11-18T13:37:24.362Z,-1.72
2023-11-18T13:40:03.006Z,-1.83
2023-11-18T13:42:35.393Z,-1.83
2023-11-18T13:45:33.440Z,-1.90
2023-11-18T13:48:04.149Z,-1.91
2023-11-18T13:50:40.919Z,-1.92
2023-11-18T13:53:09.651Z,-1.89
2023-11-18T13:55:40.313Z,-1.86
2023-11-18T13:58:08.159Z,-1.84
2023-11-18T14:00:35.541Z,-1.87
2023-11-18T14:03:12.400Z,-1.90
2023-11-18T14:05:40.307Z,-1.83
2023-11-18T14:08:14.333Z,-1.87
2023-11-18T14:10:42.522Z,-1.84
2023-11-18T14:13:32.950Z,-1.87
2023-11-18T14:16:00.886Z,-1.92
2023-11-18T14:18:28.737Z,-1.87
2023-11-18T14:20:56.398Z,-1.85
2023-11-18T14:23:24.218Z,-1.91
2023-11-18T14:25:52.697Z,-1.91
2023-11-18T14:28:26.345Z,-1.94
2023-11-18T14:30:59.561Z,-1.92
2023-11-18T14:33:26.702Z,-1.92
2023-11-18T14:36:02.582Z,-1.92
2023-11-18T14:38:30.259Z,-1.93
2023-11-18T14:40:58.467Z,-1.88
2023-11-18T14:43:25.745Z,-1.82
2023-11-18T14:45:59.191Z,-1.84
2023-11-18T14:48:29.995Z,-1.88
2023-11-18T14:50:58.401Z,-1.87
2023-11-18T14:53:26.316Z,-1.87
2023-11-18T14:55:53.526Z,-1.92
2023-11-18T14:58:20.855Z,-1.93
2023-11-18T15:00:50.398Z,-1.95
2023-11-18T15:03:17.831Z,-1.92
2023-11-18T15:05:45.542Z,-1.91
2023-11-18T15:08:14.072Z,-1.94
2023-11-18T15:10:45.706Z,-2.00
2023-11-18T15:13:19.552Z,-1.91
2023-11-18T15:15:49.711Z,-1.92
2023-11-18T15:18:21.531Z,-1.97
2023-11-18T15:20:57.806Z,-1.95
2023-11-18T15:23:28.197Z,-2.02
2023-11-18T15:25:55.836Z,-2.00
2023-11-18T15:28:23.217Z,-1.96
2023-11-18T15:30:51.946Z,-1.94
2023-11-18T15:33:22.399Z,-1.97
2023-11-18T15:35:50.073Z,-1.99
2023-11-18T15:38:24.914Z,-2.00
2023-11-18T15:40:53.936Z,-2.00
2023-11-18T15:43:21.312Z,-2.03
2023-11-18T15:45:52.933Z,-1.95
2023-11-18T15:48:20.202Z,-1.95
2023-11-18T15:50:47.544Z,-2.13
2023-11-18T15:53:15.803Z,-2.17
2023-11-18T15:55:49.200Z,-2.07
2023-11-18T15:58:17.604Z,-2.11
2023-11-18T16:00:44.828Z,-2.14
2023-11-18T16:03:14.997Z,-2.27
2023-11-18T16:05:42.339Z,-2.28
2023-11-18T16:08:10.375Z,-2.30
2023-11-18T16:10:41.794Z,-2.22
2023-11-18T16:13:09.296Z,-2.20
2023-11-18T16:15:37.151Z,-2.35
2023-11-18T16:18:05.071Z,-2.37
2023-11-18T16:21:02.824Z,-2.35
2023-11-18T16:23:36.585Z,-2.47
2023-11-18T16:26:04.289Z,-2.63
2023-11-18T16:28:31.655Z,-2.60
2023-11-18T16:30:59.200Z,-2.47
2023-11-18T16:33:41.946Z,-2.44
2023-11-18T16:36:09.609Z,-2.37
2023-11-18T16:38:36.934Z,-2.36
2023-11-18T16:41:04.561Z,-2.33
2023-11-18T16:43:32.452Z,-2.38
2023-11-18T16:46:01.184Z,-2.37
2023-11-18T16:48:30.453Z,-2.36
2023-11-18T16:50:58.106Z,-2.34
2023-11-18T16:53:25.808Z,-2.41
2023-11-18T16:55:55.801Z,-2.49
2023-11-18T16:58:23.037Z,-2.60
2023-11-18T17:00:52.479Z,-2.62
2023-11-18T17:03:19.783Z,-2.71
2023-11-18T17:05:47.102Z,-2.64
2023-11-18T17:08:15.294Z,-2.68
2023-11-18T17:10:44.313Z,-2.69
2023-11-18T17:13:18.240Z,-2.72
2023-11-18T17:15:45.970Z,-2.81
2023-11-18T17:18:13.177Z,-2.88
2023-11-18T17:20:42.457Z,-2.82
2023-11-18T17:23:12.436Z,-2.85
2023-11-18T17:25:42.907Z,-2.80
2023-11-18T17:28:18.037Z,-2.82
2023-11-18T17:30:45.436Z,-2.83
2023-11-18T17:33:13.118Z,-2.80
2023-11-18T17:35:41.944Z,-2.84
2023-11-18T17:38:10.378Z,-2.87
2023-11-18T17:40:39.319Z,-2.87
2023-11-18T17:43:06.485Z,-2.97
2023-11-18T17:45:34.461Z,-2.95
2023-11-18T17:48:08.175Z,-3.01
2023-11-18T17:50:35.426Z,-3.02
2023-11-18T17:53:05.305Z,-3.05
2023-11-18T17:55:33.777Z,-3.08
2023-11-18T17:58:01.074Z,-3.10
2023-11-18T18:00:29.040Z,-3.19
2023-11-18T18:02:59.212Z,-3.17
2023-11-18T18:05:26.583Z,-3.16
2023-11-18T18:07:56.304Z,-3.18
2023-11-18T18:10:28.840Z,-3.16
2023-11-18T18:12:58.170Z,-3.11
2023-11-18T18:15:27.955Z,-3.09
2023-11-18T18:17:56.151Z,-3.10
2023-11-18T18:20:31.523Z,-3.08
2023-11-18T18:23:08.109Z,-3.14
2023-11-18T18:25:37.126Z,-3.16
2023-11-18T18:28:05.804Z,-3.21
2023-11-18T18:30:33.634Z,-3.19
2023-11-18T18:33:01.165Z,-3.17
2023-11-18T18:35:34.842Z,-3.18
2023-11-18T18:38:02.235Z,-3.21
2023-11-18T18:40:33.088Z,-3.28
2023-11-18T18:43:04.309Z,-3.32
2023-11-18T18:45:34.998Z,-3.32
2023-11-18T18:48:03.659Z,-3.31
2023-11-18T18:50:35.859Z,-3.29
2023-11-18T18:53:03.543Z,-3.24
2023-11-18T18:55:50.389Z,-3.22
2023-11-18T18:58:17.644Z,-3.28
2023-11-18T19:00:44.861Z,-3.25
2023-11-18T19:03:13.126Z,-3.29
2023-11-18T19:05:40.462Z,-3.19
2023-11-18T19:08:12.156Z,-3.17
2023-11-18T19:10:39.367Z,-3.25
2023-11-18T19:13:06.779Z,-3.26
2023-11-18T19:15:34.149Z,-3.27
2023-11-18T19:18:01.337Z,-3.36
2023-11-18T19:20:28.736Z,-3.37
2023-11-18T19:22:56.615Z,-3.28
2023-11-18T19:25:23.806Z,-3.25
2023-11-18T19:27:51.229Z,-3.18
2023-11-18T19:30:21.122Z,-3.17
2023-11-18T19:32:49.803Z,-3.16
2023-11-18T19:35:17.177Z,-3.22
2023-11-18T19:37:44.575Z,-3.27
2023-11-18T19:40:12.547Z,-3.33
2023-11-18T19:42:40.066Z,-3.25
2023-11-18T19:45:09.410Z,-3.25
2023-11-18T19:47:37.059Z,-3.21
2023-11-18T19:50:05.169Z,-3.20
2023-11-18T19:52:32.692Z,-3.26
2023-11-18T19:54:59.804Z,-3.36
2023-11-18T19:57:27.318Z,-3.35
2023-11-18T19:59:57.613Z,-3.29
2023-11-18T20:02:25.069Z,-3.28
2023-11-18T20:04:52.390Z,-3.33
2023-11-18T20:07:22.487Z,-3.31
2023-11-18T20:09:50.305Z,-3.32
2023-11-18T20:12:17.545Z,-3.31
2023-11-18T20:14:44.747Z,-3.29
2023-11-18T20:17:12.036Z,-3.26
2023-11-18T20:19:39.812Z,-3.27
2023-11-18T20:22:10.840Z,-3.27
2023-11-18T20:24:38.739Z,-3.30
2023-11-18T20:27:05.780Z,-3.30
2023-11-18T20:29:34.950Z,-3.25
2023-11-18T20:32:03.605Z,-3.35
2023-11-18T20:34:31.068Z,-3.33
2023-11-18T20:36:58.277Z,-3.29
2023-11-18T20:39:25.509Z,-3.48
2023-11-18T20:41:52.700Z,-3.53
2023-11-18T20:44:19.936Z,-3.60
2023-11-18T20:46:47.917Z,-3.63
2023-11-18T20:49:18.611Z,-3.75
2023-11-18T20:51:46.067Z,-3.74
2023-11-18T20:54:13.292Z,-3.74
2023-11-18T20:56:40.482Z,-3.99
2023-11-18T20:59:07.749Z,-3.94
2023-11-18T21:01:34.805Z,-3.97
2023-11-18T21:04:02.355Z,-3.95
2023-11-18T21:06:31.011Z,-3.96
2023-11-18T21:08:58.225Z,-3.98
2023-11-18T21:11:27.310Z,-3.89
2023-11-18T21:13:57.550Z,-3.89
2023-11-18T21:16:24.731Z,-3.85
2023-11-18T21:18:52.047Z,-3.88
2023-11-18T21:21:20.095Z,-3.84
2023-11-18T21:23:49.210Z,-3.88
2023-11-18T21:26:16.296Z,-3.86
2023-11-18T21:28:43.696Z,-3.87
2023-11-18T21:31:10.897Z,-3.83
2023-11-18T21:33:38.805Z,-3.86
2023-11-18T21:36:06.488Z,-3.90
2023-11-18T21:38:34.915Z,-3.80
2023-11-18T21:41:02.121Z,-3.79
2023-11-18T21:43:29.240Z,-3.81
2023-11-18T21:45:56.426Z,-3.82
2023-11-18T21:48:24.144Z,-3.82
2023-11-18T21:50:52.153Z,-3.79
2023-11-18T21:53:22.132Z,-3.81
2023-11-18T21:55:55.129Z,-3.81
2023-11-18T21:58:25.884Z,-3.79
2023-11-18T22:00:53.237Z,-3.80
2023-11-18T22:03:20.508Z,-3.83
2023-11-18T22:05:48.412Z,-3.83
2023-11-18T22:08:20.554Z,-3.79
2023-11-18T22:10:48.842Z,-3.77
2023-11-18T22:13:16.072Z,-3.81
2023-11-18T22:15:43.341Z,-3.89
2023-11-18T22:18:10.836Z,-3.87
2023-11-18T22:20:39.288Z,-3.87
2023-11-18T22:23:09.623Z,-3.82
2023-11-18T22:25:37.304Z,-3.86
2023-11-18T22:28:04.519Z,-3.89
2023-11-18T22:30:31.761Z,-3.91
2023-11-18T22:33:01.395Z,-3.91
2023-11-18T22:35:31.774Z,-4.04
2023-11-18T22:38:01.446Z,-4.02
2023-11-18T22:40:28.611Z,-4.04
2023-11-18T22:42:56.884Z,-4.05
2023-11-18T22:45:24.174Z,-4.02
2023-11-18T22:47:51.981Z,-4.00
2023-11-18T22:50:23.075Z,-4.07
2023-11-18T22:52:51.502Z,-4.04
2023-11-18T22:55:20.628Z,-4.01
2023-11-18T22:57:47.951Z,-4.00
2023-11-18T23:00:35.197Z,-3.97
2023-11-18T23:03:03.534Z,-3.98
2023-11-18T23:05:30.868Z,-4.00
2023-11-18T23:07:58.224Z,-4.01
2023-11-18T23:10:26.305Z,-3.95
2023-11-18T23:12:56.292Z,-3.88
2023-11-18T23:15:25.847Z,-3.79
2023-11-18T23:17:54.153Z,-3.76
2023-11-18T23:20:22.579Z,-3.71
2023-11-18T23:22:51.867Z,-3.59
2023-11-18T23:25:24.190Z,-3.45
2023-11-18T23:28:01.072Z,-3.34
2023-11-18T23:30:29.696Z,-3.22
2023-11-18T23:32:56.972Z,-3.23
2023-11-18T23:35:24.124Z,-3.15
2023-11-18T23:37:55.398Z,-3.07
2023-11-18T23:40:24.256Z,-3.05
2023-11-18T23:42:52.139Z,-3.02
2023-11-18T23:45:20.224Z,-2.96
2023-11-18T23:47:52.464Z,-2.85
2023-11-18T23:50:21.238Z,-2.83
2023-11-18T23:52:48.782Z,-2.87
2023-11-18T23:55:16.295Z,-2.87
2023-11-18T23:57:43.996Z,-2.83
